Time;durP1;ratioP1;P1;durP2;ratioP2;P2;SDS_P1;SDS_P2;PMS_P1;PMS_P2;Temp;Humidity;BMP_temperature;BMP_pressure;BME280_temperature;BME280_humidity;BME280_pressure;Samples;Min_cycle;Max_cycle;Signal;HPM_P1;HPM_P2
2023/05/27 00:05:11;;;;;;;10.93;4.28;;;;;;;9.53;100.00;102650.47;5114343;28;20229;-77
2023/05/27 00:10:58;;;;;;;15.68;4.63;;;;;;;9.48;100.00;102657.31;5114689;28;20736;-77
2023/05/27 00:13:23;;;;;;;8.03;4.73;;;;;;;9.40;100.00;102649.28;5115014;28;20043;-77
2023/05/27 00:15:49;;;;;;;10.95;4.25;;;;;;;9.46;100.00;102654.81;5116921;28;20273;-77
2023/05/27 00:18:15;;;;;;;9.90;4.30;;;;;;;9.41;100.00;102658.97;5097776;28;20034;-76
2023/05/27 00:20:41;;;;;;;11.65;4.05;;;;;;;9.35;100.00;102652.44;5099749;28;20043;-77
2023/05/27 00:26:27;;;;;;;10.52;4.18;;;;;;;9.32;100.00;102650.94;5121007;28;20101;-77
2023/05/27 00:28:53;;;;;;;10.67;4.47;;;;;;;9.20;100.00;102632.69;5116448;28;20035;-77
2023/05/27 00:31:18;;;;;;;10.52;4.60;;;;;;;9.22;100.00;102646.69;5098495;28;20681;-77
2023/05/27 00:33:43;;;;;;;11.27;4.32;;;;;;;9.20;100.00;102644.19;5100076;28;20061;-78
2023/05/27 00:36:09;;;;;;;9.80;4.53;;;;;;;9.15;100.00;102645.69;5118327;28;20066;-78
2023/05/27 00:38:35;;;;;;;16.13;4.75;;;;;;;9.13;100.00;102643.16;5117230;28;20096;-77
2023/05/27 00:41:03;;;;;;;14.35;4.18;;;;;;;9.06;100.00;102636.81;5119006;28;20437;-76
2023/05/27 00:43:30;;;;;;;8.75;3.75;;;;;;;9.01;100.00;102639.13;5120855;28;20093;-77
2023/05/27 00:45:55;;;;;;;9.45;3.60;;;;;;;8.96;100.00;102636.94;5120235;28;20564;-77
2023/05/27 00:48:21;;;;;;;10.40;3.75;;;;;;;8.91;100.00;102638.38;5098269;28;20063;-78
2023/05/27 00:50:46;;;;;;;10.73;4.28;;;;;;;8.85;100.00;102639.03;5115834;28;20055;-78
2023/05/27 00:53:11;;;;;;;13.88;4.40;;;;;;;8.81;100.00;102630.50;5116563;28;20028;-77
2023/05/27 00:55:37;;;;;;;12.50;4.40;;;;;;;8.83;100.00;102641.84;5097434;28;20083;-77
2023/05/27 00:58:03;;;;;;;14.02;4.38;;;;;;;8.78;100.00;102630.81;5098243;28;20035;-78
2023/05/27 01:00:28;;;;;;;12.02;4.57;;;;;;;8.76;100.00;102626.66;5098295;28;20036;-77
2023/05/27 01:02:55;;;;;;;14.00;4.68;;;;;;;8.71;100.00;102628.97;5097651;28;20039;-78
2023/05/27 01:05:21;;;;;;;9.93;3.83;;;;;;;8.68;100.00;102627.44;5117803;28;20102;-77
2023/05/27 01:07:59;;;;;;;11.88;4.22;;;;;;;8.63;100.00;102630.56;5101855;28;20039;-77
2023/05/27 01:10:48;;;;;;;12.30;4.03;;;;;;;8.63;100.00;102629.72;5121673;28;20032;-77
2023/05/27 01:13:44;;;;;;;11.18;4.13;;;;;;;8.61;100.00;102629.88;5101421;28;20043;-77
2023/05/27 01:16:15;;;;;;;14.20;3.72;;;;;;;8.60;100.00;102633.53;5098355;28;20106;-77
2023/05/27 01:18:44;;;;;;;11.02;4.10;;;;;;;8.56;100.00;102624.19;5117174;28;20083;-76
2023/05/27 01:21:16;;;;;;;9.50;3.75;;;;;;;8.58;100.00;102624.03;5098603;28;20035;-77
2023/05/27 01:23:42;;;;;;;11.27;4.28;;;;;;;8.54;100.00;102622.66;5117156;28;20115;-77
2023/05/27 01:26:07;;;;;;;10.38;3.70;;;;;;;8.55;100.00;102621.69;5115340;28;20126;-76
2023/05/27 01:28:33;;;;;;;10.98;4.15;;;;;;;8.50;100.00;102615.97;5115341;28;20032;-76
2023/05/27 01:31:21;;;;;;;10.05;4.20;;;;;;;8.50;100.00;102618.66;5112777;28;20034;-76
2023/05/27 01:33:55;;;;;;;7.35;3.30;;;;;;;8.44;100.00;102611.28;5096211;28;20088;-76
2023/05/27 01:36:24;;;;;;;8.85;3.65;;;;;;;8.39;100.00;102609.09;5097803;28;20638;-76
2023/05/27 01:38:52;;;;;;;10.07;3.30;;;;;;;8.40;100.00;102607.25;5115315;28;20040;-76
2023/05/27 01:41:18;;;;;;;15.05;4.30;;;;;;;8.38;100.00;102612.72;5118172;28;20031;-75
2023/05/27 01:43:44;;;;;;;8.07;3.50;;;;;;;8.37;100.00;102617.22;5114429;28;20058;-77
2023/05/27 01:46:09;;;;;;;11.85;3.83;;;;;;;8.32;100.00;102608.81;5099102;28;20089;-76
2023/05/27 01:51:56;;;;;;;8.18;3.65;;;;;;;8.25;100.00;102607.78;5118275;28;20054;-77
2023/05/27 01:54:22;;;;;;;8.93;3.33;;;;;;;8.20;100.00;102610.06;5122826;28;20031;-77
2023/05/27 01:56:47;;;;;;;12.90;3.80;;;;;;;8.20;100.00;102607.41;5100837;28;20039;-78
2023/05/27 02:02:34;;;;;;;9.52;3.58;;;;;;;8.18;100.00;102604.06;5114718;28;20038;-76
2023/05/27 02:04:59;;;;;;;9.25;3.55;;;;;;;8.17;100.00;102598.91;5095905;28;20028;-76
2023/05/27 02:07:26;;;;;;;9.73;3.83;;;;;;;8.13;100.00;102593.03;5095596;28;20031;-76
2023/05/27 02:09:51;;;;;;;12.43;3.97;;;;;;;8.12;100.00;102596.69;5094926;28;20648;-75
2023/05/27 02:12:17;;;;;;;12.20;4.15;;;;;;;8.07;100.00;102590.97;5113923;28;20092;-76
2023/05/27 02:14:42;;;;;;;11.50;4.22;;;;;;;8.09;100.00;102599.63;5095432;28;20043;-76
2023/05/27 02:17:07;;;;;;;8.88;3.83;;;;;;;8.07;100.00;102598.97;5095930;28;20118;-76
2023/05/27 02:19:33;;;;;;;10.38;3.47;;;;;;;8.07;100.00;102605.13;5095763;28;20497;-74
2023/05/27 02:25:20;;;;;;;10.10;4.18;;;;;;;8.00;100.00;102612.06;5113775;28;20502;-77
2023/05/27 02:27:48;;;;;;;8.90;3.47;;;;;;;7.98;100.00;102616.72;5094692;28;20032;-77
2023/05/27 02:33:35;;;;;;;13.13;4.70;;;;;;;7.90;100.00;102597.16;5114494;28;20570;-76
2023/05/27 02:39:22;;;;;;;14.73;3.95;;;;;;;7.84;100.00;102597.78;5114446;28;20148;-76
2023/05/27 02:41:47;;;;;;;12.80;3.83;;;;;;;7.91;100.00;102609.50;5095185;28;20089;-75
2023/05/27 02:44:13;;;;;;;11.23;3.80;;;;;;;7.90;100.00;102613.16;5114341;28;20468;-75
2023/05/27 02:46:38;;;;;;;9.73;3.47;;;;;;;7.91;100.00;102614.81;5112809;28;20281;-75
2023/05/27 02:49:03;;;;;;;10.30;4.47;;;;;;;7.84;100.00;102603.09;5114207;28;20285;-75
2023/05/27 02:51:28;;;;;;;14.53;4.67;;;;;;;7.85;100.00;102607.44;5094834;28;20781;-76
2023/05/27 02:57:15;;;;;;;11.95;3.85;;;;;;;7.77;100.00;102618.84;5113889;28;20064;-75
2023/05/27 02:59:41;;;;;;;13.68;4.50;;;;;;;7.77;100.00;102619.66;5095061;28;20048;-76
2023/05/27 03:02:06;;;;;;;9.30;3.57;;;;;;;7.76;100.00;102615.34;5113242;28;20027;-77
2023/05/27 03:04:31;;;;;;;11.15;4.00;;;;;;;7.76;100.00;102628.66;5094189;28;20301;-76
2023/05/27 03:06:56;;;;;;;13.43;5.13;;;;;;;7.69;100.00;102614.28;5095537;28;20020;-77
2023/05/27 03:09:22;;;;;;;12.43;4.93;;;;;;;7.71;100.00;102617.63;5095422;28;20278;-77
2023/05/27 03:11:47;;;;;;;10.43;4.05;;;;;;;7.69;100.00;102622.25;5112864;28;20298;-77
2023/05/27 03:14:12;;;;;;;11.07;4.73;;;;;;;7.65;100.00;102617.41;5094963;28;20063;-76
2023/05/27 03:16:37;;;;;;;11.20;4.07;;;;;;;7.66;100.00;102617.25;5112563;28;20274;-77
2023/05/27 03:22:25;;;;;;;8.98;3.97;;;;;;;7.61;100.00;102613.38;5113310;28;20062;-77
2023/05/27 03:24:51;;;;;;;10.60;4.45;;;;;;;7.61;100.00;102616.03;5094821;28;20484;-77
2023/05/27 03:30:38;;;;;;;9.45;4.30;;;;;;;7.54;100.00;102615.78;5112850;28;20455;-77
2023/05/27 03:33:03;;;;;;;9.13;4.50;;;;;;;7.46;100.00;102615.69;5112659;28;20078;-75
2023/05/27 03:35:29;;;;;;;11.73;4.30;;;;;;;7.45;100.00;102614.84;5093661;28;20705;-76
2023/05/27 03:37:54;;;;;;;13.80;5.03;;;;;;;7.44;100.00;102602.53;5094683;28;20058;-76
2023/05/27 03:40:19;;;;;;;11.73;4.30;;;;;;;7.44;100.00;102601.69;5094190;28;20111;-76
2023/05/27 03:42:45;;;;;;;17.60;5.03;;;;;;;7.39;100.00;102602.16;5111676;28;20284;-76
2023/05/27 03:45:10;;;;;;;11.32;4.05;;;;;;;7.38;100.00;102596.97;5094064;28;20127;-77
2023/05/27 03:47:35;;;;;;;11.98;4.47;;;;;;;7.35;100.00;102600.78;5111548;28;20075;-76
2023/05/27 03:50:02;;;;;;;11.45;4.25;;;;;;;7.32;100.00;102594.91;5112383;28;20049;-76
2023/05/27 03:52:27;;;;;;;13.02;4.78;;;;;;;7.34;100.00;102595.59;5094044;28;20119;-77
2023/05/27 03:54:53;;;;;;;13.70;5.03;;;;;;;7.36;100.00;102593.63;5092450;28;20134;-77
2023/05/27 03:57:18;;;;;;;9.32;4.20;;;;;;;7.38;100.00;102591.66;5093987;28;20468;-76
2023/05/27 03:59:43;;;;;;;13.27;5.05;;;;;;;7.39;100.00;102590.66;5093247;28;20042;-76
2023/05/27 04:02:09;;;;;;;12.68;5.03;;;;;;;7.41;100.00;102592.19;5093981;28;20050;-76
2023/05/27 04:04:34;;;;;;;13.00;4.80;;;;;;;7.45;100.00;102588.25;5093935;28;20027;-76
2023/05/27 04:07:00;;;;;;;11.88;4.97;;;;;;;7.46;100.00;102581.94;5111425;28;20032;-77
2023/05/27 04:12:47;;;;;;;11.13;4.20;;;;;;;7.56;100.00;102589.03;5112514;28;20164;-76
2023/05/27 04:15:13;;;;;;;13.13;4.30;;;;;;;7.57;100.00;102586.22;5112090;28;20130;-77
2023/05/27 04:17:38;;;;;;;9.73;4.55;;;;;;;7.60;100.00;102577.91;5111572;28;20031;-77
2023/05/27 04:20:13;;;;;;;10.50;4.38;;;;;;;7.66;100.00;102581.78;5093778;28;20081;-77
2023/05/27 04:22:40;;;;;;;14.40;4.45;;;;;;;7.76;100.00;102591.38;5112238;28;20023;-76
2023/05/27 04:28:27;;;;;;;10.70;4.75;;;;;;;7.93;100.00;102583.53;5112361;28;20085;-77
2023/05/27 04:30:53;;;;;;;11.50;4.57;;;;;;;8.03;100.00;102579.78;5093018;28;20040;-76
2023/05/27 04:33:18;;;;;;;11.35;4.78;;;;;;;8.14;100.00;102584.06;5093504;28;20038;-77
2023/05/27 04:39:05;;;;;;;13.05;4.68;;;;;;;8.47;100.00;102578.97;5112122;28;20494;-76
2023/05/27 04:41:32;;;;;;;11.07;4.50;;;;;;;8.60;100.00;102576.72;5093458;28;20036;-76
2023/05/27 04:44:00;;;;;;;12.15;5.30;;;;;;;8.76;100.00;102575.97;5092874;28;20305;-76
2023/05/27 04:46:26;;;;;;;8.65;4.30;;;;;;;8.87;100.00;102571.19;5111727;28;20035;-76
2023/05/27 04:48:52;;;;;;;11.32;5.07;;;;;;;9.06;100.00;102575.44;5110783;28;20408;-77
2023/05/27 04:51:18;;;;;;;12.20;5.03;;;;;;;9.23;100.00;102570.97;5111621;28;20479;-76
2023/05/27 04:53:45;;;;;;;14.25;5.30;;;;;;;9.48;100.00;102575.38;5093490;28;20439;-78
2023/05/27 04:59:46;;;;;;;13.80;4.72;;;;;;;9.84;100.00;102562.59;5111914;28;20066;-77
2023/05/27 05:02:21;;;;;;;9.93;4.78;;;;;;;10.05;100.00;102563.91;5110777;28;20038;-77
2023/05/27 05:04:46;;;;;;;12.13;4.70;;;;;;;10.29;100.00;102561.22;5111594;28;20107;-77
2023/05/27 05:07:12;;;;;;;11.43;4.68;;;;;;;10.52;100.00;102566.72;5096008;28;20131;-75
2023/05/27 05:09:37;;;;;;;16.42;5.78;;;;;;;10.74;100.00;102565.16;5096520;28;20109;-76
2023/05/27 05:15:24;;;;;;;11.45;4.85;;;;;;;11.62;100.00;102570.22;5114952;28;20831;-77
2023/05/27 05:17:49;;;;;;;14.23;4.55;;;;;;;11.89;100.00;102571.53;5097409;28;20027;-77
2023/05/27 05:20:14;;;;;;;13.80;5.40;;;;;;;12.21;100.00;102562.38;5115340;28;20063;-77
2023/05/27 05:22:40;;;;;;;9.38;4.60;;;;;;;12.43;100.00;102568.66;5099683;28;20273;-77
2023/05/27 05:25:05;;;;;;;12.07;4.50;;;;;;;12.58;98.05;102558.78;5097100;28;20023;-77
2023/05/27 05:27:30;;;;;;;13.45;4.15;;;;;;;12.86;96.86;102564.34;5097889;28;20019;-77
2023/05/27 05:33:18;;;;;;;14.00;5.00;;;;;;;13.48;94.31;102563.88;5116879;28;20284;-77
2023/05/27 05:39:05;;;;;;;11.05;4.93;;;;;;;14.20;90.81;102561.84;5116917;28;20090;-77
2023/05/27 05:41:30;;;;;;;10.02;4.05;;;;;;;14.29;88.41;102570.59;5097969;28;20028;-76
2023/05/27 05:43:56;;;;;;;15.18;4.53;;;;;;;14.50;88.11;102573.25;5096908;28;20039;-77
2023/05/27 05:49:43;;;;;;;11.15;4.65;;;;;;;14.83;86.65;102565.38;5115543;28;20050;-78
2023/05/27 05:52:09;;;;;;;12.17;4.77;;;;;;;15.20;83.10;102560.53;5116803;28;20103;-75
2023/05/27 05:54:34;;;;;;;11.27;5.03;;;;;;;15.36;80.16;102560.19;5097305;28;20781;-76
2023/05/27 05:57:01;;;;;;;11.75;4.60;;;;;;;15.23;81.61;102553.91;5096528;28;20047;-78
2023/05/27 06:02:48;;;;;;;9.57;5.32;;;;;;;15.32;79.13;102547.28;5118074;28;20055;-76
2023/05/27 06:05:14;;;;;;;9.13;4.60;;;;;;;15.23;80.27;102546.66;5117044;28;20023;-76
2023/05/27 06:11:01;;;;;;;11.35;4.78;;;;;;;14.99;80.32;102545.31;5117061;28;20035;-77
2023/05/27 06:13:27;;;;;;;10.18;4.50;;;;;;;15.23;79.94;102551.22;5115016;28;20152;-76
2023/05/27 06:15:52;;;;;;;10.75;4.95;;;;;;;15.36;81.96;102543.19;5116772;28;20495;-76
2023/05/27 06:18:18;;;;;;;9.40;4.85;;;;;;;15.73;77.25;102542.63;5097243;28;20070;-77
2023/05/27 06:20:43;;;;;;;14.13;5.23;;;;;;;16.08;78.22;102553.22;5097927;28;20032;-76
2023/05/27 06:23:09;;;;;;;10.43;4.80;;;;;;;16.22;76.28;102552.19;5116452;28;20269;-76
2023/05/27 06:25:34;;;;;;;13.55;5.10;;;;;;;16.84;73.76;102548.13;5117512;28;20116;-76
2023/05/27 06:28:00;;;;;;;12.68;4.57;;;;;;;17.42;69.92;102548.03;5097210;28;20059;-76
2023/05/27 06:30:27;;;;;;;13.15;5.10;;;;;;;17.99;68.05;102538.06;5099382;28;20111;-76
2023/05/27 06:32:52;;;;;;;12.68;4.53;;;;;;;18.42;65.03;102540.75;5114789;28;20044;-76
2023/05/27 06:35:18;;;;;;;13.57;5.28;;;;;;;18.77;63.29;102530.16;5114986;28;20456;-77
2023/05/27 06:37:43;;;;;;;9.50;4.80;;;;;;;18.95;64.38;102532.03;5098966;28;20369;-77
2023/05/27 06:43:31;;;;;;;8.95;4.40;;;;;;;20.40;59.15;102527.06;5114923;28;20042;-76
2023/05/27 06:45:56;;;;;;;12.68;5.13;;;;;;;21.06;55.60;102535.75;5117518;28;20039;-77
2023/05/27 06:48:21;;;;;;;11.83;5.17;;;;;;;21.06;55.07;102530.31;5120815;28;20031;-77
2023/05/27 06:50:47;;;;;;;11.20;4.85;;;;;;;21.57;53.63;102534.81;5101958;28;20824;-77
2023/05/27 06:53:13;;;;;;;13.07;5.35;;;;;;;22.36;51.32;102532.00;5097262;28;20036;-77
2023/05/27 06:55:38;;;;;;;10.05;4.72;;;;;;;22.83;49.23;102529.59;5115888;28;20034;-78
2023/05/27 06:58:03;;;;;;;10.53;4.83;;;;;;;22.70;48.07;102529.16;5115956;28;20130;-77
2023/05/27 07:00:29;;;;;;;9.10;5.10;;;;;;;22.41;48.26;102544.88;5117886;28;20776;-75
2023/05/27 07:02:54;;;;;;;12.27;4.87;;;;;;;22.02;51.43;102533.09;5119433;28;20277;-78
2023/05/27 07:05:20;;;;;;;11.15;4.85;;;;;;;21.91;50.67;102523.94;5098816;28;20651;-77
2023/05/27 07:07:45;;;;;;;12.07;4.95;;;;;;;22.66;50.50;102534.28;5101137;28;20024;-78
2023/05/27 07:13:31;;;;;;;11.68;5.43;;;;;;;24.95;44.09;102523.31;5114003;28;20311;-78
2023/05/27 07:15:57;;;;;;;9.07;4.87;;;;;;;25.39;41.15;102522.03;5095274;28;20051;-77
2023/05/27 07:18:22;;;;;;;11.13;5.03;;;;;;;25.58;40.08;102523.16;5098846;28;20122;-77
2023/05/27 07:20:47;;;;;;;14.50;5.15;;;;;;;25.47;40.39;102530.56;5119161;28;20292;-77
2023/05/27 07:23:13;;;;;;;13.37;4.90;;;;;;;25.46;41.07;102525.34;5117349;28;20111;-78
2023/05/27 07:25:38;;;;;;;11.47;5.30;;;;;;;24.95;39.70;102522.50;5099245;28;20356;-76
2023/05/27 07:28:03;;;;;;;12.07;5.30;;;;;;;24.66;42.35;102511.16;5114304;28;20024;-77
2023/05/27 07:33:50;;;;;;;12.95;5.22;;;;;;;25.31;39.88;102513.28;5115731;28;20130;-77
2023/05/27 07:36:16;;;;;;;10.43;4.80;;;;;;;24.71;39.99;102514.75;5096127;28;20059;-76
2023/05/27 07:38:41;;;;;;;8.55;4.80;;;;;;;25.05;40.89;102517.06;5116632;28;20028;-77
2023/05/27 07:41:06;;;;;;;14.55;5.55;;;;;;;25.67;39.74;102515.22;5097456;28;20507;-76
2023/05/27 07:43:32;;;;;;;13.15;6.05;;;;;;;26.42;40.19;102516.22;5095992;28;20019;-76
2023/05/27 07:45:57;;;;;;;10.52;5.47;;;;;;;26.40;38.07;102504.69;5117077;28;20023;-76
2023/05/27 07:48:22;;;;;;;12.73;5.27;;;;;;;26.71;36.71;102511.69;5100725;28;20043;-75
2023/05/27 07:50:47;;;;;;;10.67;5.70;;;;;;;26.29;37.31;102505.78;5116350;28;20284;-76
2023/05/27 07:53:13;;;;;;;12.70;5.27;;;;;;;26.42;36.73;102510.72;5099066;28;20282;-75
2023/05/27 07:55:38;;;;;;;12.70;5.40;;;;;;;26.41;37.17;102492.63;5097749;28;20039;-76
2023/05/27 07:58:03;;;;;;;13.00;5.63;;;;;;;26.77;37.52;102493.28;5117726;28;20019;-77
2023/05/27 08:00:30;;;;;;;9.98;5.15;;;;;;;27.87;35.56;102497.44;5116621;28;20277;-78
2023/05/27 08:02:55;;;;;;;9.75;5.50;;;;;;;27.92;34.86;102492.69;5096711;28;20387;-77
2023/05/27 08:05:20;;;;;;;12.33;6.10;;;;;;;27.27;34.68;102486.66;5100069;28;20028;-76
2023/05/27 08:07:46;;;;;;;10.37;5.33;;;;;;;27.42;34.64;102480.22;5119940;28;20277;-77
2023/05/27 08:10:11;;;;;;;11.60;5.90;;;;;;;28.09;33.65;102495.00;5098324;28;20657;-76
2023/05/27 08:12:37;;;;;;;13.52;5.75;;;;;;;28.40;33.99;102489.16;5095323;28;20047;-77
2023/05/27 08:15:02;;;;;;;13.57;5.47;;;;;;;28.34;32.48;102478.22;5095868;28;20042;-76
2023/05/27 08:17:28;;;;;;;12.70;5.82;;;;;;;27.96;32.75;102488.25;5095659;28;20535;-76
2023/05/27 08:19:53;;;;;;;10.10;5.30;;;;;;;27.42;34.45;102478.28;5096788;28;20051;-76
2023/05/27 08:22:18;;;;;;;13.27;5.57;;;;;;;27.57;34.88;102479.25;5096601;28;20030;-77
2023/05/27 08:24:43;;;;;;;12.17;5.43;;;;;;;27.93;34.05;102475.06;5097514;28;20757;-76
2023/05/27 08:27:16;;;;;;;14.00;5.70;;;;;;;28.08;33.15;102468.59;5114532;28;20028;-77
2023/05/27 08:29:42;;;;;;;12.90;5.97;;;;;;;27.39;34.19;102465.13;5097874;28;20035;-77
2023/05/27 08:32:08;;;;;;;11.10;5.78;;;;;;;27.33;35.03;102455.28;5096979;28;20590;-77
2023/05/27 08:34:33;;;;;;;12.97;6.27;;;;;;;26.84;35.28;102447.09;5097416;28;20027;-77
2023/05/27 08:37:00;;;;;;;13.85;6.28;;;;;;;26.81;35.33;102447.66;5097628;28;20298;-77
2023/05/27 08:39:26;;;;;;;9.95;5.45;;;;;;;27.00;35.31;102437.69;5097537;28;20020;-78
2023/05/27 08:41:53;;;;;;;14.65;5.75;;;;;;;26.89;35.27;102440.75;5119118;28;20099;-76
2023/05/27 08:44:18;;;;;;;11.88;6.03;;;;;;;27.18;34.72;102433.44;5100656;28;20036;-75
2023/05/27 08:46:47;;;;;;;12.60;5.80;;;;;;;27.84;33.88;102440.25;5120355;28;20030;-77
2023/05/27 08:49:13;;;;;;;10.00;5.47;;;;;;;28.73;32.39;102441.34;5101429;28;20122;-75
2023/05/27 08:55:01;;;;;;;10.38;5.65;;;;;;;30.27;29.47;102432.88;5117965;28;20796;-76
2023/05/27 08:57:32;;;;;;;12.75;5.65;;;;;;;30.12;29.82;102428.50;5116588;28;20063;-76
2023/05/27 09:03:20;;;;;;;16.23;6.18;;;;;;;30.62;28.41;102430.47;5117266;28;20088;-77
2023/05/27 09:05:45;;;;;;;17.38;6.03;;;;;;;29.80;29.50;102425.81;5116399;28;20023;-77
2023/05/27 09:08:11;;;;;;;11.90;5.85;;;;;;;30.13;28.76;102421.84;5098903;28;20475;-76
2023/05/27 09:13:58;;;;;;;11.40;6.30;;;;;;;29.68;29.92;102414.44;5117142;28;20074;-75
2023/05/27 09:19:46;;;;;;;11.20;6.00;;;;;;;28.15;31.54;102397.53;5116652;28;20066;-75
2023/05/27 09:22:22;;;;;;;12.27;6.35;;;;;;;27.86;33.67;102403.13;5100924;28;20465;-77
2023/05/27 09:24:49;;;;;;;14.20;6.20;;;;;;;27.39;34.55;102403.84;5121346;28;20387;-77
2023/05/27 09:34:24;;;;;;;15.70;6.45;;;;;;;26.57;37.27;102383.59;5117052;28;20126;-76
2023/05/27 09:36:51;;;;;;;13.25;7.10;;;;;;;25.79;38.24;102385.03;5098586;28;20092;-76
2023/05/27 09:39:19;;;;;;;12.30;6.60;;;;;;;25.49;37.28;102374.94;5115365;28;20047;-77
2023/05/27 09:45:09;;;;;;;11.25;6.15;;;;;;;25.42;39.02;102379.88;5118919;28;20089;-79
2023/05/27 09:47:40;;;;;;;13.82;6.30;;;;;;;25.56;38.60;102380.94;5097266;28;20027;-77
2023/05/27 09:50:08;;;;;;;14.15;5.90;;;;;;;24.60;40.47;102361.78;5098350;28;20100;-76
2023/05/27 09:55:56;;;;;;;13.82;6.15;;;;;;;24.90;40.26;102361.81;5118811;28;20047;-80
2023/05/27 09:58:22;;;;;;;14.23;6.40;;;;;;;24.84;39.76;102362.88;5116317;28;20055;-78
2023/05/27 10:04:10;;;;;;;13.00;6.68;;;;;;;23.48;40.98;102359.38;5115550;28;20055;-78
2023/05/27 10:06:36;;;;;;;11.50;5.72;;;;;;;23.32;42.83;102346.69;5115945;28;20026;-80
2023/05/27 10:09:05;;;;;;;11.52;5.88;;;;;;;23.44;41.30;102360.16;5096580;28;20126;-79
2023/05/27 10:11:37;;;;;;;14.25;6.82;;;;;;;22.92;43.64;102351.84;5114097;28;20023;-78
2023/05/27 10:14:03;;;;;;;11.98;5.55;;;;;;;22.54;46.40;102351.72;5095380;28;20050;-79
2023/05/27 10:16:29;;;;;;;15.52;6.05;;;;;;;22.77;46.53;102342.38;5114236;28;20506;-80
2023/05/27 10:18:56;;;;;;;13.70;6.05;;;;;;;22.96;45.25;102342.03;5096028;28;20050;-80
2023/05/27 10:21:23;;;;;;;14.40;6.10;;;;;;;23.07;44.16;102341.03;5113199;28;20044;-80
2023/05/27 10:24:10;;;;;;;14.07;5.75;;;;;;;23.01;45.45;102334.72;5113748;28;20047;-79
2023/05/27 10:26:42;;;;;;;15.05;6.60;;;;;;;22.91;44.41;102337.38;5096006;28;20033;-80
2023/05/27 10:29:09;;;;;;;14.52;6.13;;;;;;;22.79;43.92;102321.13;5115708;28;20023;-81
2023/05/27 10:31:38;;;;;;;15.07;5.63;;;;;;;22.79;44.97;102332.03;5113782;28;20045;-78
2023/05/27 10:34:05;;;;;;;14.75;5.65;;;;;;;22.98;45.37;102331.69;5113701;28;20100;-79
2023/05/27 10:36:32;;;;;;;12.32;5.70;;;;;;;23.16;45.14;102328.56;5114033;28;20039;-78
2023/05/27 10:39:06;;;;;;;16.00;6.38;;;;;;;23.24;43.79;102325.34;5113953;28;20275;-80
2023/05/27 10:41:52;;;;;;;12.57;6.20;;;;;;;23.41;44.30;102320.53;5096287;28;20475;-78
2023/05/27 10:44:28;;;;;;;12.57;5.97;;;;;;;23.27;46.32;102321.25;5113254;28;20547;-79
2023/05/27 10:50:15;;;;;;;12.10;6.40;;;;;;;23.54;42.29;102308.31;5114810;28;20060;-79
2023/05/27 10:52:41;;;;;;;13.67;6.03;;;;;;;23.34;45.21;102302.72;5114608;28;20027;-79
2023/05/27 10:55:07;;;;;;;12.82;5.50;;;;;;;23.23;44.62;102303.78;5113484;28;20274;-80
2023/05/27 10:57:33;;;;;;;13.65;6.45;;;;;;;23.28;45.52;102301.88;5113553;28;20036;-79
2023/05/27 11:00:09;;;;;;;14.18;5.70;;;;;;;23.33;44.35;102299.19;5113685;28;20395;-80
2023/05/27 11:02:37;;;;;;;11.73;5.80;;;;;;;23.50;42.43;102296.28;5095062;28;20043;-80
2023/05/27 11:05:10;;;;;;;12.25;5.80;;;;;;;23.46;44.49;102282.34;5096011;28;20047;-76
2023/05/27 11:07:40;;;;;;;11.57;5.35;;;;;;;23.55;42.88;102282.66;5094706;28;20131;-79
2023/05/27 11:10:10;;;;;;;13.95;5.53;;;;;;;23.98;44.59;102273.28;5113121;28;20051;-81
2023/05/27 11:12:35;;;;;;;11.07;5.15;;;;;;;24.59;38.65;102273.44;5096546;28;20077;-80
2023/05/27 11:15:02;;;;;;;12.30;5.05;;;;;;;24.48;40.92;102290.09;5113551;28;20044;-80
2023/05/27 11:17:28;;;;;;;13.25;5.50;;;;;;;23.94;39.44;102265.88;5114469;28;20124;-80
2023/05/27 11:19:54;;;;;;;9.82;5.55;;;;;;;23.83;42.38;102272.41;5113536;28;20040;-76
2023/05/27 11:22:20;;;;;;;14.35;4.82;;;;;;;23.82;40.21;102265.31;5113653;28;20063;-79
2023/05/27 11:25:03;;;;;;;14.40;5.32;;;;;;;24.03;41.57;102267.03;5096241;28;20024;-79
2023/05/27 11:30:50;;;;;;;11.27;4.20;;;;;;;23.09;37.32;102243.34;5113457;28;20054;-77
2023/05/27 11:36:38;;;;;;;11.35;4.22;;;;;;;23.78;40.01;102238.53;5114077;28;20047;-78
2023/05/27 11:39:04;;;;;;;10.80;5.45;;;;;;;24.00;38.40;102237.50;5094286;28;20437;-79
2023/05/27 11:41:30;;;;;;;13.77;5.78;;;;;;;24.16;42.72;102235.59;5096098;28;20028;-79
2023/05/27 11:47:18;;;;;;;12.55;5.18;;;;;;;25.05;36.47;102231.53;5114444;28;20490;-78
2023/05/27 11:53:05;;;;;;;10.70;4.93;;;;;;;24.90;37.93;102221.41;5115438;28;20133;-79
2023/05/27 11:55:31;;;;;;;12.13;4.75;;;;;;;24.80;35.81;102211.28;5095511;28;20464;-79
2023/05/27 11:57:56;;;;;;;10.82;4.13;;;;;;;24.88;35.24;102212.66;5094874;28;20453;-75
2023/05/27 12:03:43;;;;;;;11.05;4.57;;;;;;;26.31;31.58;102201.84;5112070;28;20042;-76
2023/05/27 12:09:31;;;;;;;11.45;4.40;;;;;;;26.41;32.08;102199.06;5114018;28;20524;-75
2023/05/27 12:15:18;;;;;;;11.48;4.13;;;;;;;28.30;27.74;102193.72;5112740;28;20046;-76
2023/05/27 12:17:43;;;;;;;11.63;4.80;;;;;;;28.71;29.92;102197.72;5114108;28;20134;-81
2023/05/27 12:23:30;;;;;;;10.35;4.45;;;;;;;26.14;30.24;102175.66;5113186;28;20228;-75
2023/05/27 12:25:55;;;;;;;11.20;4.45;;;;;;;25.95;35.72;102169.22;5094835;28;20114;-77
2023/05/27 12:31:42;;;;;;;11.88;4.57;;;;;;;24.69;38.12;102158.50;5112805;28;20677;-76
2023/05/27 12:37:29;;;;;;;11.10;5.00;;;;;;;24.28;37.44;102157.72;5112643;28;20164;-75
2023/05/27 12:43:19;;;;;;;13.23;4.50;;;;;;;25.14;34.41;102147.72;5112189;28;20322;-76
2023/05/27 12:49:07;;;;;;;7.97;4.55;;;;;;;26.29;32.11;102141.78;5112720;28;20043;-78
2023/05/27 12:54:55;;;;;;;10.48;4.35;;;;;;;27.13;31.21;102134.09;5112783;28;20066;-76
2023/05/27 13:00:42;;;;;;;9.55;4.25;;;;;;;25.14;33.75;102132.09;5113326;28;20038;-76
2023/05/27 13:06:30;;;;;;;9.45;4.25;;;;;;;26.33;30.19;102129.16;5113992;28;20074;-75
2023/05/27 13:12:18;;;;;;;9.23;4.13;;;;;;;26.16;35.21;102121.34;5113332;28;20066;-80
2023/05/27 13:18:06;;;;;;;12.02;4.43;;;;;;;26.53;30.30;102120.75;5113952;28;20054;-81
2023/05/27 13:23:53;;;;;;;8.07;3.78;;;;;;;25.77;32.33;102113.19;5112525;28;20057;-76
2023/05/27 13:26:20;;;;;;;8.05;3.75;;;;;;;25.08;33.74;102114.06;5112280;28;20043;-76
2023/05/27 13:32:08;;;;;;;8.15;4.18;;;;;;;24.24;35.42;102110.13;5115052;28;20038;-76
2023/05/27 13:37:55;;;;;;;10.98;4.15;;;;;;;23.90;36.20;102100.84;5116625;28;20066;-77
2023/05/27 13:43:42;;;;;;;14.10;4.85;;;;;;;23.27;35.09;102095.50;5115402;28;20046;-78
2023/05/27 13:46:07;;;;;;;10.40;3.80;;;;;;;23.09;37.91;102094.06;5114147;28;20047;-75
2023/05/27 13:51:54;;;;;;;11.43;4.30;;;;;;;22.76;39.64;102064.44;5115315;28;20046;-75
2023/05/27 13:54:20;;;;;;;10.30;4.95;;;;;;;22.82;39.01;102060.69;5096441;28;20028;-75
2023/05/27 14:10:12;;;;;;;8.85;4.10;;;;;;;22.59;39.29;102053.75;5114582;28;20058;-75
2023/05/27 14:15:59;;;;;;;8.93;4.07;;;;;;;22.69;42.17;102037.41;5114946;28;20085;-76
2023/05/27 14:18:24;;;;;;;10.40;4.20;;;;;;;22.81;37.75;102034.50;5113737;28;20548;-76
2023/05/27 14:24:12;;;;;;;7.78;4.07;;;;;;;22.63;38.07;102030.31;5114060;28;20046;-76
2023/05/27 14:29:59;;;;;;;8.27;4.38;;;;;;;22.41;38.70;102033.19;5114466;28;20130;-75
2023/05/27 14:32:25;;;;;;;9.20;4.13;;;;;;;22.36;38.02;102027.72;5114184;28;20096;-76
2023/05/27 14:34:51;;;;;;;8.57;4.32;;;;;;;22.39;39.79;102027.19;5113745;28;20035;-76
2023/05/27 14:40:38;;;;;;;11.68;4.38;;;;;;;22.36;41.11;102021.44;5113796;28;20057;-76
2023/05/27 14:43:04;;;;;;;7.40;3.97;;;;;;;22.49;45.07;102012.78;5113037;28;20051;-75
2023/05/27 14:45:30;;;;;;;10.02;4.47;;;;;;;22.64;38.21;102022.94;5113787;28;20095;-76
2023/05/27 14:51:17;;;;;;;9.95;4.20;;;;;;;22.85;38.99;102002.88;5113612;28;20034;-76
2023/05/27 14:57:04;;;;;;;12.05;4.32;;;;;;;23.07;39.70;102013.56;5114026;28;20111;-75
2023/05/27 15:02:52;;;;;;;9.60;4.78;;;;;;;23.18;41.51;102012.53;5114376;28;20552;-73